sensor_id;sensor_type;location;lat;lon;timestamp;P1;durP1;ratioP1;P2;durP2;ratioP2
15661;SDS011;7931;52.274;10.470;2022-08-11T00:00:09;2.47;;;1.20;;
15661;SDS011;7931;52.274;10.470;2022-08-11T00:02:38;1.38;;;1.27;;
15661;SDS011;7931;52.274;10.470;2022-08-11T00:05:07;1.63;;;1.10;;
15661;SDS011;7931;52.274;10.470;2022-08-11T00:07:46;1.42;;;1.30;;
15661;SDS011;7931;52.274;10.470;2022-08-11T00:10:15;1.75;;;1.08;;
15661;SDS011;7931;52.274;10.470;2022-08-11T00:12:43;1.38;;;1.27;;
15661;SDS011;7931;52.274;10.470;2022-08-11T00:15:14;3.15;;;1.35;;
15661;SDS011;7931;52.274;10.470;2022-08-11T00:17:40;1.30;;;1.20;;
15661;SDS011;7931;52.274;10.470;2022-08-11T00:20:08;3.35;;;1.23;;
15661;SDS011;7931;52.274;10.470;2022-08-11T00:22:37;1.23;;;0.93;;
15661;SDS011;7931;52.274;10.470;2022-08-11T00:25:08;1.17;;;1.02;;
15661;SDS011;7931;52.274;10.470;2022-08-11T00:27:35;1.88;;;1.10;;
15661;SDS011;7931;52.274;10.470;2022-08-11T00:30:06;3.58;;;1.20;;
15661;SDS011;7931;52.274;10.470;2022-08-11T00:32:33;1.10;;;1.00;;
15661;SDS011;7931;52.274;10.470;2022-08-11T00:35:01;3.25;;;1.20;;
15661;SDS011;7931;52.274;10.470;2022-08-11T00:37:27;1.40;;;1.27;;
15661;SDS011;7931;52.274;10.470;2022-08-11T00:39:54;1.92;;;1.30;;
15661;SDS011;7931;52.274;10.470;2022-08-11T00:42:26;1.27;;;1.10;;
15661;SDS011;7931;52.274;10.470;2022-08-11T00:45:34;1.67;;;1.20;;
15661;SDS011;7931;52.274;10.470;2022-08-11T00:48:21;1.52;;;1.02;;
15661;SDS011;7931;52.274;10.470;2022-08-11T00:53:48;3.65;;;1.48;;
15661;SDS011;7931;52.274;10.470;2022-08-11T01:04:19;3.50;;;1.15;;
15661;SDS011;7931;52.274;10.470;2022-08-11T01:13:13;1.92;;;1.40;;
15661;SDS011;7931;52.274;10.470;2022-08-11T01:16:27;3.45;;;1.30;;
15661;SDS011;7931;52.274;10.470;2022-08-11T01:18:52;2.53;;;1.50;;
15661;SDS011;7931;52.274;10.470;2022-08-11T01:36:39;1.45;;;1.27;;
15661;SDS011;7931;52.274;10.470;2022-08-11T01:39:41;2.38;;;1.50;;
15661;SDS011;7931;52.274;10.470;2022-08-11T01:45:51;3.13;;;1.30;;
15661;SDS011;7931;52.274;10.470;2022-08-11T01:48:38;2.28;;;2.08;;
15661;SDS011;7931;52.274;10.470;2022-08-11T01:51:10;1.67;;;1.30;;
15661;SDS011;7931;52.274;10.470;2022-08-11T01:56:10;1.20;;;1.10;;
15661;SDS011;7931;52.274;10.470;2022-08-11T02:07:49;1.60;;;1.38;;
15661;SDS011;7931;52.274;10.470;2022-08-11T02:10:34;1.52;;;1.30;;
15661;SDS011;7931;52.274;10.470;2022-08-11T02:16:03;1.38;;;1.27;;
15661;SDS011;7931;52.274;10.470;2022-08-11T02:18:51;1.15;;;1.00;;
15661;SDS011;7931;52.274;10.470;2022-08-11T02:21:49;1.85;;;1.50;;
15661;SDS011;7931;52.274;10.470;2022-08-11T02:24:52;1.67;;;1.10;;
15661;SDS011;7931;52.274;10.470;2022-08-11T02:27:35;1.70;;;1.30;;
15661;SDS011;7931;52.274;10.470;2022-08-11T02:30:14;1.85;;;1.33;;
15661;SDS011;7931;52.274;10.470;2022-08-11T02:36:03;1.58;;;1.40;;
15661;SDS011;7931;52.274;10.470;2022-08-11T02:41:18;2.15;;;1.35;;
15661;SDS011;7931;52.274;10.470;2022-08-11T02:44:27;1.67;;;1.42;;
15661;SDS011;7931;52.274;10.470;2022-08-11T02:50:01;2.25;;;1.60;;
15661;SDS011;7931;52.274;10.470;2022-08-11T02:52:49;2.05;;;1.38;;
15661;SDS011;7931;52.274;10.470;2022-08-11T02:58:43;1.85;;;1.20;;
15661;SDS011;7931;52.274;10.470;2022-08-11T03:01:40;1.60;;;1.50;;
15661;SDS011;7931;52.274;10.470;2022-08-11T03:04:17;2.22;;;1.63;;
15661;SDS011;7931;52.274;10.470;2022-08-11T03:06:58;1.67;;;1.40;;
15661;SDS011;7931;52.274;10.470;2022-08-11T03:09:43;2.85;;;1.50;;
15661;SDS011;7931;52.274;10.470;2022-08-11T03:12:17;1.90;;;1.38;;
15661;SDS011;7931;52.274;10.470;2022-08-11T03:15:13;2.00;;;1.45;;
15661;SDS011;7931;52.274;10.470;2022-08-11T03:23:33;2.47;;;1.58;;
15661;SDS011;7931;52.274;10.470;2022-08-11T03:26:14;3.53;;;1.73;;
15661;SDS011;7931;52.274;10.470;2022-08-11T03:31:56;1.52;;;1.42;;
15661;SDS011;7931;52.274;10.470;2022-08-11T03:34:27;1.27;;;1.10;;
15661;SDS011;7931;52.274;10.470;2022-08-11T03:37:16;2.30;;;1.35;;
15661;SDS011;7931;52.274;10.470;2022-08-11T03:46:13;1.67;;;1.58;;
15661;SDS011;7931;52.274;10.470;2022-08-11T03:51:58;5.88;;;1.95;;
15661;SDS011;7931;52.274;10.470;2022-08-11T04:11:49;2.22;;;1.67;;
15661;SDS011;7931;52.274;10.470;2022-08-11T04:14:48;3.10;;;1.73;;
15661;SDS011;7931;52.274;10.470;2022-08-11T04:17:48;2.50;;;1.75;;
15661;SDS011;7931;52.274;10.470;2022-08-11T04:26:47;3.23;;;1.87;;
15661;SDS011;7931;52.274;10.470;2022-08-11T04:32:15;1.73;;;1.63;;
15661;SDS011;7931;52.274;10.470;2022-08-11T04:40:53;2.00;;;1.77;;
15661;SDS011;7931;52.274;10.470;2022-08-11T04:49:18;3.17;;;1.95;;
15661;SDS011;7931;52.274;10.470;2022-08-11T05:16:31;2.45;;;2.15;;
15661;SDS011;7931;52.274;10.470;2022-08-11T05:19:24;2.58;;;2.30;;
15661;SDS011;7931;52.274;10.470;2022-08-11T05:22:09;3.58;;;2.85;;
15661;SDS011;7931;52.274;10.470;2022-08-11T05:25:17;4.35;;;2.45;;
15661;SDS011;7931;52.274;10.470;2022-08-11T05:28:27;4.00;;;2.67;;
15661;SDS011;7931;52.274;10.470;2022-08-11T05:31:15;3.92;;;2.30;;
15661;SDS011;7931;52.274;10.470;2022-08-11T05:34:09;3.65;;;2.70;;
15661;SDS011;7931;52.274;10.470;2022-08-11T05:37:05;6.60;;;3.20;;
15661;SDS011;7931;52.274;10.470;2022-08-11T05:39:38;3.75;;;2.60;;
15661;SDS011;7931;52.274;10.470;2022-08-11T05:42:27;4.75;;;3.33;;
15661;SDS011;7931;52.274;10.470;2022-08-11T05:45:15;2.80;;;2.35;;
15661;SDS011;7931;52.274;10.470;2022-08-11T05:47:59;3.50;;;2.90;;
15661;SDS011;7931;52.274;10.470;2022-08-11T05:50:52;5.95;;;3.15;;
15661;SDS011;7931;52.274;10.470;2022-08-11T05:53:49;5.70;;;2.80;;
15661;SDS011;7931;52.274;10.470;2022-08-11T05:56:41;3.85;;;2.70;;
15661;SDS011;7931;52.274;10.470;2022-08-11T05:59:12;4.22;;;2.30;;
15661;SDS011;7931;52.274;10.470;2022-08-11T06:01:39;7.13;;;2.45;;
15661;SDS011;7931;52.274;10.470;2022-08-11T06:04:06;7.13;;;2.83;;
15661;SDS011;7931;52.274;10.470;2022-08-11T06:09:38;4.03;;;3.10;;
15661;SDS011;7931;52.274;10.470;2022-08-11T06:12:19;2.95;;;2.45;;
15661;SDS011;7931;52.274;10.470;2022-08-11T06:14:54;3.58;;;2.88;;
15661;SDS011;7931;52.274;10.470;2022-08-11T06:17:24;3.83;;;2.63;;
15661;SDS011;7931;52.274;10.470;2022-08-11T06:19:57;3.53;;;2.60;;
15661;SDS011;7931;52.274;10.470;2022-08-11T06:22:28;2.67;;;2.47;;
15661;SDS011;7931;52.274;10.470;2022-08-11T06:24:56;5.43;;;3.03;;
15661;SDS011;7931;52.274;10.470;2022-08-11T06:27:24;4.93;;;2.30;;
15661;SDS011;7931;52.274;10.470;2022-08-11T06:29:51;4.20;;;3.70;;
15661;SDS011;7931;52.274;10.470;2022-08-11T06:32:20;6.68;;;3.17;;
15661;SDS011;7931;52.274;10.470;2022-08-11T06:35:00;2.97;;;2.78;;
15661;SDS011;7931;52.274;10.470;2022-08-11T06:37:45;4.43;;;3.28;;
15661;SDS011;7931;52.274;10.470;2022-08-11T06:43:44;8.85;;;4.32;;
15661;SDS011;7931;52.274;10.470;2022-08-11T06:46:16;5.43;;;3.78;;
15661;SDS011;7931;52.274;10.470;2022-08-11T06:48:47;16.02;;;7.45;;
15661;SDS011;7931;52.274;10.470;2022-08-11T06:51:13;7.38;;;4.15;;
15661;SDS011;7931;52.274;10.470;2022-08-11T06:53:44;5.88;;;3.10;;
15661;SDS011;7931;52.274;10.470;2022-08-11T06:56:12;4.50;;;2.90;;
15661;SDS011;7931;52.274;10.470;2022-08-11T06:58:58;4.00;;;3.00;;
15661;SDS011;7931;52.274;10.470;2022-08-11T07:01:56;6.10;;;3.42;;
15661;SDS011;7931;52.274;10.470;2022-08-11T07:04:43;5.50;;;3.05;;
15661;SDS011;7931;52.274;10.470;2022-08-11T07:13:58;2.83;;;2.47;;
15661;SDS011;7931;52.274;10.470;2022-08-11T07:16:46;2.90;;;2.45;;
15661;SDS011;7931;52.274;10.470;2022-08-11T07:19:14;6.55;;;2.70;;
15661;SDS011;7931;52.274;10.470;2022-08-11T07:22:11;5.68;;;2.72;;
15661;SDS011;7931;52.274;10.470;2022-08-11T07:25:00;2.70;;;2.20;;
15661;SDS011;7931;52.274;10.470;2022-08-11T07:27:50;4.55;;;2.72;;
15661;SDS011;7931;52.274;10.470;2022-08-11T07:30:40;4.07;;;2.50;;
15661;SDS011;7931;52.274;10.470;2022-08-11T07:33:07;2.60;;;2.40;;
15661;SDS011;7931;52.274;10.470;2022-08-11T07:35:41;3.17;;;2.67;;
15661;SDS011;7931;52.274;10.470;2022-08-11T07:38:15;5.10;;;2.40;;
15661;SDS011;7931;52.274;10.470;2022-08-11T07:40:46;3.60;;;2.58;;
15661;SDS011;7931;52.274;10.470;2022-08-11T07:43:12;5.05;;;2.50;;
15661;SDS011;7931;52.274;10.470;2022-08-11T07:45:41;2.97;;;2.70;;
15661;SDS011;7931;52.274;10.470;2022-08-11T07:48:27;2.60;;;2.40;;
15661;SDS011;7931;52.274;10.470;2022-08-11T07:51:21;4.45;;;2.33;;
15661;SDS011;7931;52.274;10.470;2022-08-11T07:54:05;6.03;;;2.30;;
15661;SDS011;7931;52.274;10.470;2022-08-11T07:56:32;3.83;;;2.10;;
15661;SDS011;7931;52.274;10.470;2022-08-11T07:58:59;3.85;;;2.08;;
15661;SDS011;7931;52.274;10.470;2022-08-11T08:01:43;4.10;;;2.28;;
15661;SDS011;7931;52.274;10.470;2022-08-11T08:04:27;2.92;;;2.38;;
15661;SDS011;7931;52.274;10.470;2022-08-11T08:07:12;3.80;;;2.20;;
15661;SDS011;7931;52.274;10.470;2022-08-11T08:09:56;4.05;;;2.05;;
15661;SDS011;7931;52.274;10.470;2022-08-11T08:12:40;2.47;;;2.20;;
15661;SDS011;7931;52.274;10.470;2022-08-11T08:15:24;3.25;;;2.47;;
15661;SDS011;7931;52.274;10.470;2022-08-11T08:18:08;6.38;;;2.55;;
15661;SDS011;7931;52.274;10.470;2022-08-11T08:20:47;3.90;;;2.22;;
15661;SDS011;7931;52.274;10.470;2022-08-11T08:23:14;3.55;;;1.88;;
15661;SDS011;7931;52.274;10.470;2022-08-11T08:25:41;3.70;;;1.98;;
15661;SDS011;7931;52.274;10.470;2022-08-11T08:28:09;4.13;;;2.42;;
15661;SDS011;7931;52.274;10.470;2022-08-11T08:30:38;2.20;;;1.83;;
15661;SDS011;7931;52.274;10.470;2022-08-11T08:33:27;2.60;;;1.95;;
15661;SDS011;7931;52.274;10.470;2022-08-11T08:35:55;3.80;;;2.05;;
15661;SDS011;7931;52.274;10.470;2022-08-11T08:38:46;2.42;;;1.95;;
15661;SDS011;7931;52.274;10.470;2022-08-11T08:41:13;2.45;;;2.22;;
15661;SDS011;7931;52.274;10.470;2022-08-11T08:43:44;2.33;;;2.10;;
15661;SDS011;7931;52.274;10.470;2022-08-11T08:46:16;4.82;;;2.00;;
15661;SDS011;7931;52.274;10.470;2022-08-11T08:48:45;2.30;;;2.10;;
15661;SDS011;7931;52.274;10.470;2022-08-11T08:51:12;2.63;;;1.80;;
15661;SDS011;7931;52.274;10.470;2022-08-11T08:53:58;4.03;;;2.42;;
15661;SDS011;7931;52.274;10.470;2022-08-11T08:56:27;3.72;;;2.00;;
15661;SDS011;7931;52.274;10.470;2022-08-11T08:58:54;3.35;;;2.05;;
15661;SDS011;7931;52.274;10.470;2022-08-11T09:01:23;4.85;;;2.20;;
15661;SDS011;7931;52.274;10.470;2022-08-11T09:03:52;3.17;;;1.75;;
15661;SDS011;7931;52.274;10.470;2022-08-11T09:06:18;3.63;;;1.77;;
15661;SDS011;7931;52.274;10.470;2022-08-11T09:08:44;2.13;;;1.90;;
15661;SDS011;7931;52.274;10.470;2022-08-11T09:11:10;4.13;;;2.03;;
15661;SDS011;7931;52.274;10.470;2022-08-11T09:13:56;7.90;;;2.00;;
15661;SDS011;7931;52.274;10.470;2022-08-11T09:16:21;2.70;;;1.90;;
15661;SDS011;7931;52.274;10.470;2022-08-11T09:18:48;4.15;;;1.80;;
15661;SDS011;7931;52.274;10.470;2022-08-11T09:21:15;5.57;;;1.90;;
15661;SDS011;7931;52.274;10.470;2022-08-11T09:23:44;3.60;;;2.20;;
15661;SDS011;7931;52.274;10.470;2022-08-11T09:26:29;2.47;;;1.98;;
15661;SDS011;7931;52.274;10.470;2022-08-11T09:29:23;2.30;;;2.10;;
15661;SDS011;7931;52.274;10.470;2022-08-11T09:31:51;3.50;;;1.98;;
15661;SDS011;7931;52.274;10.470;2022-08-11T09:34:17;4.13;;;2.00;;
15661;SDS011;7931;52.274;10.470;2022-08-11T09:36:43;7.15;;;2.03;;
15661;SDS011;7931;52.274;10.470;2022-08-11T09:39:29;2.63;;;1.70;;
15661;SDS011;7931;52.274;10.470;2022-08-11T09:42:14;2.75;;;2.53;;
15661;SDS011;7931;52.274;10.470;2022-08-11T09:44:44;3.47;;;2.17;;
15661;SDS011;7931;52.274;10.470;2022-08-11T09:47:16;2.22;;;1.90;;
15661;SDS011;7931;52.274;10.470;2022-08-11T09:49:44;2.33;;;1.60;;
15661;SDS011;7931;52.274;10.470;2022-08-11T09:52:11;6.15;;;2.10;;
15661;SDS011;7931;52.274;10.470;2022-08-11T09:54:39;2.35;;;2.15;;
15661;SDS011;7931;52.274;10.470;2022-08-11T09:57:06;3.25;;;1.98;;
15661;SDS011;7931;52.274;10.470;2022-08-11T09:59:50;2.80;;;1.90;;
15661;SDS011;7931;52.274;10.470;2022-08-11T10:02:17;2.08;;;1.90;;
15661;SDS011;7931;52.274;10.470;2022-08-11T10:04:49;4.28;;;2.05;;
15661;SDS011;7931;52.274;10.470;2022-08-11T10:07:17;3.15;;;1.80;;
15661;SDS011;7931;52.274;10.470;2022-08-11T10:09:51;7.68;;;1.88;;
15661;SDS011;7931;52.274;10.470;2022-08-11T10:14:57;2.17;;;1.70;;
15661;SDS011;7931;52.274;10.470;2022-08-11T10:17:47;4.63;;;1.80;;
15661;SDS011;7931;52.274;10.470;2022-08-11T10:20:36;2.75;;;1.80;;
15661;SDS011;7931;52.274;10.470;2022-08-11T10:23:03;3.65;;;1.88;;
15661;SDS011;7931;52.274;10.470;2022-08-11T10:25:48;3.90;;;1.60;;
15661;SDS011;7931;52.274;10.470;2022-08-11T10:28:33;3.55;;;1.77;;
15661;SDS011;7931;52.274;10.470;2022-08-11T10:31:00;2.08;;;1.88;;
15661;SDS011;7931;52.274;10.470;2022-08-11T10:33:47;2.97;;;1.88;;
15661;SDS011;7931;52.274;10.470;2022-08-11T10:36:26;5.38;;;1.80;;
15661;SDS011;7931;52.274;10.470;2022-08-11T10:38:53;4.88;;;1.90;;
15661;SDS011;7931;52.274;10.470;2022-08-11T10:41:20;3.38;;;1.90;;
15661;SDS011;7931;52.274;10.470;2022-08-11T10:44:05;3.42;;;1.73;;
15661;SDS011;7931;52.274;10.470;2022-08-11T10:46:33;2.05;;;1.88;;
15661;SDS011;7931;52.274;10.470;2022-08-11T10:49:18;1.73;;;1.50;;
15661;SDS011;7931;52.274;10.470;2022-08-11T10:51:44;3.92;;;1.73;;
15661;SDS011;7931;52.274;10.470;2022-08-11T10:54:29;2.20;;;2.00;;
15661;SDS011;7931;52.274;10.470;2022-08-11T10:57:16;2.45;;;2.00;;
15661;SDS011;7931;52.274;10.470;2022-08-11T11:00:01;2.15;;;1.95;;
15661;SDS011;7931;52.274;10.470;2022-08-11T11:02:30;2.67;;;1.83;;
15661;SDS011;7931;52.274;10.470;2022-08-11T11:05:03;2.22;;;2.03;;
15661;SDS011;7931;52.274;10.470;2022-08-11T11:07:49;3.60;;;1.80;;
15661;SDS011;7931;52.274;10.470;2022-08-11T11:10:20;2.58;;;1.80;;
15661;SDS011;7931;52.274;10.470;2022-08-11T11:12:46;2.05;;;1.90;;
15661;SDS011;7931;52.274;10.470;2022-08-11T11:15:35;1.70;;;1.60;;
15661;SDS011;7931;52.274;10.470;2022-08-11T11:18:39;1.80;;;1.65;;
15661;SDS011;7931;52.274;10.470;2022-08-11T11:21:08;2.35;;;1.92;;
15661;SDS011;7931;52.274;10.470;2022-08-11T11:26:53;2.97;;;1.85;;
15661;SDS011;7931;52.274;10.470;2022-08-11T11:30:27;2.85;;;1.80;;
15661;SDS011;7931;52.274;10.470;2022-08-11T11:37:58;3.00;;;1.67;;
15661;SDS011;7931;52.274;10.470;2022-08-11T11:40:25;2.72;;;2.00;;
15661;SDS011;7931;52.274;10.470;2022-08-11T11:42:53;4.28;;;2.35;;
15661;SDS011;7931;52.274;10.470;2022-08-11T11:45:21;6.80;;;2.35;;
15661;SDS011;7931;52.274;10.470;2022-08-11T11:47:49;2.00;;;1.80;;
15661;SDS011;7931;52.274;10.470;2022-08-11T11:52:52;2.67;;;1.92;;
15661;SDS011;7931;52.274;10.470;2022-08-11T11:55:23;3.35;;;2.10;;
15661;SDS011;7931;52.274;10.470;2022-08-11T11:57:53;3.90;;;1.73;;
15661;SDS011;7931;52.274;10.470;2022-08-11T12:00:38;5.13;;;1.95;;
15661;SDS011;7931;52.274;10.470;2022-08-11T12:03:24;5.00;;;1.63;;
15661;SDS011;7931;52.274;10.470;2022-08-11T12:05:51;2.85;;;2.13;;
15661;SDS011;7931;52.274;10.470;2022-08-11T12:08:17;3.25;;;2.15;;
15661;SDS011;7931;52.274;10.470;2022-08-11T12:10:52;3.05;;;1.90;;
15661;SDS011;7931;52.274;10.470;2022-08-11T12:13:41;1.83;;;1.73;;
15661;SDS011;7931;52.274;10.470;2022-08-11T12:16:10;2.00;;;1.90;;
15661;SDS011;7931;52.274;10.470;2022-08-11T12:18:37;3.55;;;1.95;;
15661;SDS011;7931;52.274;10.470;2022-08-11T12:21:05;2.67;;;2.00;;
15661;SDS011;7931;52.274;10.470;2022-08-11T12:23:36;2.85;;;2.20;;
15661;SDS011;7931;52.274;10.470;2022-08-11T12:26:21;2.03;;;1.70;;
15661;SDS011;7931;52.274;10.470;2022-08-11T12:29:23;2.95;;;1.95;;
15661;SDS011;7931;52.274;10.470;2022-08-11T12:31:51;2.45;;;1.60;;
15661;SDS011;7931;52.274;10.470;2022-08-11T12:34:19;4.18;;;1.80;;
15661;SDS011;7931;52.274;10.470;2022-08-11T12:36:48;2.25;;;1.67;;
15661;SDS011;7931;52.274;10.470;2022-08-11T12:39:20;2.95;;;1.90;;
15661;SDS011;7931;52.274;10.470;2022-08-11T12:42:10;1.83;;;1.73;;
15661;SDS011;7931;52.274;10.470;2022-08-11T12:44:57;3.13;;;1.80;;
15661;SDS011;7931;52.274;10.470;2022-08-11T12:47:43;2.15;;;2.05;;
15661;SDS011;7931;52.274;10.470;2022-08-11T12:50:32;2.40;;;1.85;;
15661;SDS011;7931;52.274;10.470;2022-08-11T12:53:17;1.90;;;1.70;;
15661;SDS011;7931;52.274;10.470;2022-08-11T12:55:47;2.08;;;1.73;;
15661;SDS011;7931;52.274;10.470;2022-08-11T12:58:33;3.22;;;1.90;;
15661;SDS011;7931;52.274;10.470;2022-08-11T13:01:02;2.97;;;1.92;;
15661;SDS011;7931;52.274;10.470;2022-08-11T13:03:46;1.83;;;1.73;;
15661;SDS011;7931;52.274;10.470;2022-08-11T13:06:31;2.08;;;1.60;;
15661;SDS011;7931;52.274;10.470;2022-08-11T13:08:58;1.45;;;1.35;;
15661;SDS011;7931;52.274;10.470;2022-08-11T13:11:23;2.63;;;2.35;;
15661;SDS011;7931;52.274;10.470;2022-08-11T13:14:08;4.10;;;1.60;;
15661;SDS011;7931;52.274;10.470;2022-08-11T13:16:34;3.88;;;1.83;;
15661;SDS011;7931;52.274;10.470;2022-08-11T13:19:24;2.63;;;1.42;;
15661;SDS011;7931;52.274;10.470;2022-08-11T13:21:50;3.08;;;1.60;;
15661;SDS011;7931;52.274;10.470;2022-08-11T13:24:16;1.77;;;1.20;;
15661;SDS011;7931;52.274;10.470;2022-08-11T13:26:44;3.88;;;1.90;;
15661;SDS011;7931;52.274;10.470;2022-08-11T13:29:10;1.80;;;1.55;;
15661;SDS011;7931;52.274;10.470;2022-08-11T13:31:36;3.50;;;1.70;;
15661;SDS011;7931;52.274;10.470;2022-08-11T13:34:03;2.72;;;1.75;;
15661;SDS011;7931;52.274;10.470;2022-08-11T13:36:32;2.92;;;1.70;;
15661;SDS011;7931;52.274;10.470;2022-08-11T13:38:59;2.90;;;1.60;;
15661;SDS011;7931;52.274;10.470;2022-08-11T13:41:26;1.90;;;1.80;;
15661;SDS011;7931;52.274;10.470;2022-08-11T13:44:12;2.35;;;1.70;;
15661;SDS011;7931;52.274;10.470;2022-08-11T13:46:40;3.35;;;1.77;;
15661;SDS011;7931;52.274;10.470;2022-08-11T13:49:07;3.00;;;1.80;;
15661;SDS011;7931;52.274;10.470;2022-08-11T13:51:35;1.85;;;1.67;;
15661;SDS011;7931;52.274;10.470;2022-08-11T13:54:09;4.78;;;1.67;;
15661;SDS011;7931;52.274;10.470;2022-08-11T13:56:41;1.90;;;1.63;;
15661;SDS011;7931;52.274;10.470;2022-08-11T13:59:08;1.70;;;1.60;;
15661;SDS011;7931;52.274;10.470;2022-08-11T14:01:38;2.70;;;1.88;;
15661;SDS011;7931;52.274;10.470;2022-08-11T14:04:10;2.38;;;1.70;;
15661;SDS011;7931;52.274;10.470;2022-08-11T14:06:43;2.47;;;1.73;;
15661;SDS011;7931;52.274;10.470;2022-08-11T14:09:13;2.28;;;1.90;;
15661;SDS011;7931;52.274;10.470;2022-08-11T14:11:43;2.55;;;1.67;;
15661;SDS011;7931;52.274;10.470;2022-08-11T14:14:30;3.15;;;1.77;;
15661;SDS011;7931;52.274;10.470;2022-08-11T14:16:59;2.30;;;1.65;;
15661;SDS011;7931;52.274;10.470;2022-08-11T14:19:29;2.28;;;2.05;;
15661;SDS011;7931;52.274;10.470;2022-08-11T14:21:57;4.53;;;1.45;;
15661;SDS011;7931;52.274;10.470;2022-08-11T14:24:37;3.30;;;1.80;;
15661;SDS011;7931;52.274;10.470;2022-08-11T14:27:05;1.80;;;1.40;;
15661;SDS011;7931;52.274;10.470;2022-08-11T14:29:32;3.75;;;1.75;;
15661;SDS011;7931;52.274;10.470;2022-08-11T14:32:03;2.67;;;1.42;;
15661;SDS011;7931;52.274;10.470;2022-08-11T14:34:30;2.10;;;1.50;;
15661;SDS011;7931;52.274;10.470;2022-08-11T14:37:08;3.22;;;1.77;;
15661;SDS011;7931;52.274;10.470;2022-08-11T14:39:43;2.88;;;2.08;;
15661;SDS011;7931;52.274;10.470;2022-08-11T14:42:15;4.45;;;2.05;;
15661;SDS011;7931;52.274;10.470;2022-08-11T14:45:08;2.65;;;2.03;;
15661;SDS011;7931;52.274;10.470;2022-08-11T14:47:56;3.92;;;1.80;;
15661;SDS011;7931;52.274;10.470;2022-08-11T14:50:26;4.28;;;1.70;;
15661;SDS011;7931;52.274;10.470;2022-08-11T14:55:31;2.00;;;1.65;;
15661;SDS011;7931;52.274;10.470;2022-08-11T14:58:20;2.65;;;1.63;;
15661;SDS011;7931;52.274;10.470;2022-08-11T15:00:49;2.45;;;1.80;;
15661;SDS011;7931;52.274;10.470;2022-08-11T15:03:17;3.58;;;1.90;;
15661;SDS011;7931;52.274;10.470;2022-08-11T15:05:44;3.95;;;1.90;;
15661;SDS011;7931;52.274;10.470;2022-08-11T15:08:15;4.63;;;2.10;;
15661;SDS011;7931;52.274;10.470;2022-08-11T15:10:43;3.85;;;1.77;;
15661;SDS011;7931;52.274;10.470;2022-08-11T15:13:10;2.22;;;1.77;;
15661;SDS011;7931;52.274;10.470;2022-08-11T15:15:40;1.90;;;1.48;;
15661;SDS011;7931;52.274;10.470;2022-08-11T15:18:24;2.13;;;1.80;;
15661;SDS011;7931;52.274;10.470;2022-08-11T15:20:50;2.35;;;1.80;;
15661;SDS011;7931;52.274;10.470;2022-08-11T15:23:37;4.88;;;1.75;;
15661;SDS011;7931;52.274;10.470;2022-08-11T15:29:23;1.92;;;1.75;;
15661;SDS011;7931;52.274;10.470;2022-08-11T15:32:10;3.60;;;1.70;;
15661;SDS011;7931;52.274;10.470;2022-08-11T15:34:46;3.28;;;1.70;;
15661;SDS011;7931;52.274;10.470;2022-08-11T15:37:34;6.05;;;1.63;;
15661;SDS011;7931;52.274;10.470;2022-08-11T15:46:02;4.75;;;1.63;;
15661;SDS011;7931;52.274;10.470;2022-08-11T15:48:38;2.80;;;1.80;;
15661;SDS011;7931;52.274;10.470;2022-08-11T15:51:09;4.00;;;1.85;;
15661;SDS011;7931;52.274;10.470;2022-08-11T15:53:41;2.10;;;1.80;;
15661;SDS011;7931;52.274;10.470;2022-08-11T15:56:11;1.70;;;1.60;;
15661;SDS011;7931;52.274;10.470;2022-08-11T15:58:39;2.33;;;1.92;;
15661;SDS011;7931;52.274;10.470;2022-08-11T16:01:25;1.80;;;1.70;;
15661;SDS011;7931;52.274;10.470;2022-08-11T16:04:18;3.58;;;1.65;;
15661;SDS011;7931;52.274;10.470;2022-08-11T16:06:52;3.50;;;1.60;;
15661;SDS011;7931;52.274;10.470;2022-08-11T16:09:23;3.15;;;1.55;;
15661;SDS011;7931;52.274;10.470;2022-08-11T16:11:53;1.98;;;1.75;;
15661;SDS011;7931;52.274;10.470;2022-08-11T16:14:23;3.38;;;1.92;;
15661;SDS011;7931;52.274;10.470;2022-08-11T16:17:10;3.10;;;1.80;;
15661;SDS011;7931;52.274;10.470;2022-08-11T16:19:39;2.20;;;1.77;;
15661;SDS011;7931;52.274;10.470;2022-08-11T16:22:08;3.63;;;1.88;;
15661;SDS011;7931;52.274;10.470;2022-08-11T16:24:36;3.13;;;1.80;;
15661;SDS011;7931;52.274;10.470;2022-08-11T16:27:08;5.45;;;2.42;;
15661;SDS011;7931;52.274;10.470;2022-08-11T16:29:36;3.25;;;1.80;;
15661;SDS011;7931;52.274;10.470;2022-08-11T16:32:07;1.88;;;1.77;;
15661;SDS011;7931;52.274;10.470;2022-08-11T16:34:43;2.90;;;1.65;;
15661;SDS011;7931;52.274;10.470;2022-08-11T16:37:33;2.25;;;2.03;;
15661;SDS011;7931;52.274;10.470;2022-08-11T16:40:19;3.67;;;1.85;;
15661;SDS011;7931;52.274;10.470;2022-08-11T16:42:46;2.08;;;1.67;;
15661;SDS011;7931;52.274;10.470;2022-08-11T16:45:31;2.08;;;1.63;;
15661;SDS011;7931;52.274;10.470;2022-08-11T16:48:17;1.65;;;1.45;;
15661;SDS011;7931;52.274;10.470;2022-08-11T16:50:43;4.57;;;1.70;;
15661;SDS011;7931;52.274;10.470;2022-08-11T16:53:09;2.47;;;1.65;;
15661;SDS011;7931;52.274;10.470;2022-08-11T16:55:35;2.50;;;1.60;;
15661;SDS011;7931;52.274;10.470;2022-08-11T16:58:01;2.28;;;1.80;;
15661;SDS011;7931;52.274;10.470;2022-08-11T17:00:47;2.33;;;1.52;;
15661;SDS011;7931;52.274;10.470;2022-08-11T17:03:15;2.00;;;1.50;;
15661;SDS011;7931;52.274;10.470;2022-08-11T17:06:01;2.63;;;1.60;;
15661;SDS011;7931;52.274;10.470;2022-08-11T17:08:51;2.08;;;1.42;;
15661;SDS011;7931;52.274;10.470;2022-08-11T17:11:45;2.47;;;1.65;;
15661;SDS011;7931;52.274;10.470;2022-08-11T17:14:48;3.28;;;1.60;;
15661;SDS011;7931;52.274;10.470;2022-08-11T17:17:18;3.13;;;1.67;;
15661;SDS011;7931;52.274;10.470;2022-08-11T17:19:51;4.68;;;1.70;;
15661;SDS011;7931;52.274;10.470;2022-08-11T17:22:19;3.92;;;1.50;;
15661;SDS011;7931;52.274;10.470;2022-08-11T17:25:05;1.70;;;1.60;;
15661;SDS011;7931;52.274;10.470;2022-08-11T17:27:33;2.30;;;1.75;;
15661;SDS011;7931;52.274;10.470;2022-08-11T17:30:01;2.65;;;1.80;;
15661;SDS011;7931;52.274;10.470;2022-08-11T17:32:32;3.35;;;1.85;;
15661;SDS011;7931;52.274;10.470;2022-08-11T17:35:22;3.47;;;1.65;;
15661;SDS011;7931;52.274;10.470;2022-08-11T17:38:09;3.35;;;1.70;;
15661;SDS011;7931;52.274;10.470;2022-08-11T17:40:39;3.55;;;1.67;;
15661;SDS011;7931;52.274;10.470;2022-08-11T17:43:27;1.90;;;1.70;;
15661;SDS011;7931;52.274;10.470;2022-08-11T17:46:13;1.63;;;1.52;;
15661;SDS011;7931;52.274;10.470;2022-08-11T17:48:58;1.80;;;1.70;;
15661;SDS011;7931;52.274;10.470;2022-08-11T17:51:25;1.90;;;1.80;;
15661;SDS011;7931;52.274;10.470;2022-08-11T17:54:12;3.50;;;1.58;;
15661;SDS011;7931;52.274;10.470;2022-08-11T17:56:57;2.60;;;1.90;;
15661;SDS011;7931;52.274;10.470;2022-08-11T17:59:43;2.30;;;1.88;;
15661;SDS011;7931;52.274;10.470;2022-08-11T18:02:25;2.15;;;1.70;;
15661;SDS011;7931;52.274;10.470;2022-08-11T18:05:17;4.15;;;1.92;;
15661;SDS011;7931;52.274;10.470;2022-08-11T18:07:44;2.25;;;1.63;;
15661;SDS011;7931;52.274;10.470;2022-08-11T18:10:31;3.60;;;1.52;;
15661;SDS011;7931;52.274;10.470;2022-08-11T18:13:17;2.20;;;1.50;;
15661;SDS011;7931;52.274;10.470;2022-08-11T18:16:04;2.55;;;1.55;;
15661;SDS011;7931;52.274;10.470;2022-08-11T18:18:48;2.08;;;1.83;;
15661;SDS011;7931;52.274;10.470;2022-08-11T18:21:32;3.38;;;1.58;;
15661;SDS011;7931;52.274;10.470;2022-08-11T18:24:18;1.60;;;1.50;;
15661;SDS011;7931;52.274;10.470;2022-08-11T18:27:06;1.52;;;1.38;;
15661;SDS011;7931;52.274;10.470;2022-08-11T18:29:52;3.05;;;1.40;;
15661;SDS011;7931;52.274;10.470;2022-08-11T18:32:39;2.05;;;1.50;;
15661;SDS011;7931;52.274;10.470;2022-08-11T18:35:24;2.38;;;1.50;;
15661;SDS011;7931;52.274;10.470;2022-08-11T18:38:10;2.92;;;1.50;;
15661;SDS011;7931;52.274;10.470;2022-08-11T18:40:56;2.58;;;1.65;;
15661;SDS011;7931;52.274;10.470;2022-08-11T18:43:42;1.60;;;1.50;;
15661;SDS011;7931;52.274;10.470;2022-08-11T18:46:33;1.40;;;1.30;;
15661;SDS011;7931;52.274;10.470;2022-08-11T18:49:21;2.55;;;1.60;;